sensor_id;sensor_type;location;lat;lon;timestamp;P1;durP1;ratioP1;P2;durP2;ratioP2
21114;SDS011;10715;48.546;9.896;2023-04-06T00:01:49;10.40;;;6.37;;
21114;SDS011;10715;48.546;9.896;2023-04-06T00:04:15;8.73;;;5.67;;
21114;SDS011;10715;48.546;9.896;2023-04-06T00:06:41;9.23;;;6.30;;
21114;SDS011;10715;48.546;9.896;2023-04-06T00:09:07;7.60;;;4.70;;
21114;SDS011;10715;48.546;9.896;2023-04-06T00:11:33;6.37;;;5.40;;
21114;SDS011;10715;48.546;9.896;2023-04-06T00:13:59;6.50;;;5.17;;
21114;SDS011;10715;48.546;9.896;2023-04-06T00:16:25;9.03;;;5.80;;
21114;SDS011;10715;48.546;9.896;2023-04-06T00:18:51;11.70;;;6.30;;
21114;SDS011;10715;48.546;9.896;2023-04-06T00:21:16;5.67;;;5.13;;
21114;SDS011;10715;48.546;9.896;2023-04-06T00:23:42;4.90;;;4.30;;
21114;SDS011;10715;48.546;9.896;2023-04-06T00:26:08;8.80;;;7.10;;
21114;SDS011;10715;48.546;9.896;2023-04-06T00:28:35;7.30;;;4.90;;
21114;SDS011;10715;48.546;9.896;2023-04-06T00:31:02;5.93;;;5.17;;
21114;SDS011;10715;48.546;9.896;2023-04-06T00:33:27;6.30;;;5.57;;
21114;SDS011;10715;48.546;9.896;2023-04-06T00:35:53;7.10;;;6.37;;
21114;SDS011;10715;48.546;9.896;2023-04-06T00:38:19;10.83;;;7.00;;
21114;SDS011;10715;48.546;9.896;2023-04-06T00:40:45;6.63;;;6.00;;
21114;SDS011;10715;48.546;9.896;2023-04-06T00:43:11;9.03;;;5.40;;
21114;SDS011;10715;48.546;9.896;2023-04-06T00:45:38;8.23;;;6.10;;
21114;SDS011;10715;48.546;9.896;2023-04-06T00:48:04;9.67;;;6.10;;
21114;SDS011;10715;48.546;9.896;2023-04-06T00:50:31;6.67;;;5.17;;
21114;SDS011;10715;48.546;9.896;2023-04-06T00:52:58;6.50;;;5.90;;
21114;SDS011;10715;48.546;9.896;2023-04-06T00:55:25;8.03;;;6.23;;
21114;SDS011;10715;48.546;9.896;2023-04-06T00:57:51;6.90;;;5.83;;
21114;SDS011;10715;48.546;9.896;2023-04-06T01:00:17;7.17;;;6.57;;
21114;SDS011;10715;48.546;9.896;2023-04-06T01:02:43;8.73;;;6.20;;
21114;SDS011;10715;48.546;9.896;2023-04-06T01:05:10;7.67;;;6.87;;
21114;SDS011;10715;48.546;9.896;2023-04-06T01:07:36;7.73;;;6.43;;
21114;SDS011;10715;48.546;9.896;2023-04-06T01:10:02;15.30;;;7.10;;
21114;SDS011;10715;48.546;9.896;2023-04-06T01:12:29;8.10;;;6.97;;
21114;SDS011;10715;48.546;9.896;2023-04-06T01:14:55;12.83;;;6.93;;
21114;SDS011;10715;48.546;9.896;2023-04-06T01:17:21;7.10;;;5.80;;
21114;SDS011;10715;48.546;9.896;2023-04-06T01:19:47;10.70;;;7.00;;
21114;SDS011;10715;48.546;9.896;2023-04-06T01:22:17;7.47;;;5.67;;
21114;SDS011;10715;48.546;9.896;2023-04-06T01:24:43;7.67;;;6.70;;
21114;SDS011;10715;48.546;9.896;2023-04-06T01:27:10;8.80;;;5.60;;
21114;SDS011;10715;48.546;9.896;2023-04-06T01:29:36;6.90;;;5.40;;
21114;SDS011;10715;48.546;9.896;2023-04-06T01:32:02;8.67;;;7.73;;
21114;SDS011;10715;48.546;9.896;2023-04-06T01:34:28;8.10;;;6.47;;
21114;SDS011;10715;48.546;9.896;2023-04-06T01:36:54;8.73;;;5.50;;
21114;SDS011;10715;48.546;9.896;2023-04-06T01:39:20;11.60;;;6.33;;
21114;SDS011;10715;48.546;9.896;2023-04-06T01:41:45;10.83;;;6.27;;
21114;SDS011;10715;48.546;9.896;2023-04-06T01:44:12;10.50;;;7.03;;
21114;SDS011;10715;48.546;9.896;2023-04-06T01:46:41;6.43;;;5.70;;
21114;SDS011;10715;48.546;9.896;2023-04-06T01:49:06;10.73;;;6.33;;
21114;SDS011;10715;48.546;9.896;2023-04-06T01:51:32;13.20;;;6.50;;
21114;SDS011;10715;48.546;9.896;2023-04-06T01:53:58;10.23;;;6.70;;
21114;SDS011;10715;48.546;9.896;2023-04-06T01:56:24;6.13;;;5.60;;
21114;SDS011;10715;48.546;9.896;2023-04-06T01:58:50;14.40;;;6.37;;
21114;SDS011;10715;48.546;9.896;2023-04-06T02:01:16;8.00;;;6.10;;
21114;SDS011;10715;48.546;9.896;2023-04-06T02:03:41;10.50;;;6.57;;
21114;SDS011;10715;48.546;9.896;2023-04-06T02:06:07;6.70;;;5.93;;
21114;SDS011;10715;48.546;9.896;2023-04-06T02:08:33;8.90;;;6.47;;
21114;SDS011;10715;48.546;9.896;2023-04-06T02:10:59;7.10;;;6.10;;
21114;SDS011;10715;48.546;9.896;2023-04-06T02:13:25;7.53;;;6.30;;
21114;SDS011;10715;48.546;9.896;2023-04-06T02:15:50;7.80;;;6.30;;
21114;SDS011;10715;48.546;9.896;2023-04-06T02:18:16;11.13;;;6.67;;
21114;SDS011;10715;48.546;9.896;2023-04-06T02:20:43;9.53;;;6.87;;
21114;SDS011;10715;48.546;9.896;2023-04-06T02:23:09;8.40;;;5.33;;
21114;SDS011;10715;48.546;9.896;2023-04-06T02:25:35;10.40;;;6.70;;
21114;SDS011;10715;48.546;9.896;2023-04-06T02:28:01;8.40;;;6.10;;
21114;SDS011;10715;48.546;9.896;2023-04-06T02:30:27;12.53;;;7.40;;
21114;SDS011;10715;48.546;9.896;2023-04-06T02:32:54;11.30;;;7.40;;
21114;SDS011;10715;48.546;9.896;2023-04-06T02:35:20;7.07;;;5.90;;
21114;SDS011;10715;48.546;9.896;2023-04-06T02:37:46;11.90;;;7.13;;
21114;SDS011;10715;48.546;9.896;2023-04-06T02:40:11;11.97;;;7.23;;
21114;SDS011;10715;48.546;9.896;2023-04-06T02:42:38;7.77;;;6.80;;
21114;SDS011;10715;48.546;9.896;2023-04-06T02:45:04;13.40;;;6.60;;
21114;SDS011;10715;48.546;9.896;2023-04-06T02:47:30;7.53;;;6.77;;
21114;SDS011;10715;48.546;9.896;2023-04-06T02:49:56;7.17;;;5.73;;
21114;SDS011;10715;48.546;9.896;2023-04-06T02:52:22;5.97;;;5.47;;
21114;SDS011;10715;48.546;9.896;2023-04-06T02:54:47;22.20;;;7.23;;
21114;SDS011;10715;48.546;9.896;2023-04-06T02:57:13;9.67;;;8.43;;
21114;SDS011;10715;48.546;9.896;2023-04-06T02:59:39;13.23;;;9.20;;
21114;SDS011;10715;48.546;9.896;2023-04-06T03:02:05;11.37;;;9.77;;
21114;SDS011;10715;48.546;9.896;2023-04-06T03:04:30;13.53;;;8.33;;
21114;SDS011;10715;48.546;9.896;2023-04-06T03:06:56;9.17;;;8.27;;
21114;SDS011;10715;48.546;9.896;2023-04-06T03:09:22;9.07;;;8.17;;
21114;SDS011;10715;48.546;9.896;2023-04-06T03:11:47;8.30;;;6.40;;
21114;SDS011;10715;48.546;9.896;2023-04-06T03:14:13;8.93;;;6.87;;
21114;SDS011;10715;48.546;9.896;2023-04-06T03:16:39;11.73;;;7.50;;
21114;SDS011;10715;48.546;9.896;2023-04-06T03:19:05;10.87;;;5.57;;
21114;SDS011;10715;48.546;9.896;2023-04-06T03:21:31;9.60;;;6.63;;
21114;SDS011;10715;48.546;9.896;2023-04-06T03:23:56;10.50;;;8.80;;
21114;SDS011;10715;48.546;9.896;2023-04-06T03:26:22;8.20;;;6.07;;
21114;SDS011;10715;48.546;9.896;2023-04-06T03:28:48;9.47;;;5.90;;
21114;SDS011;10715;48.546;9.896;2023-04-06T03:31:14;10.27;;;6.40;;
21114;SDS011;10715;48.546;9.896;2023-04-06T03:33:39;6.00;;;5.17;;
21114;SDS011;10715;48.546;9.896;2023-04-06T03:36:05;7.47;;;6.77;;
21114;SDS011;10715;48.546;9.896;2023-04-06T03:38:31;10.00;;;6.10;;
21114;SDS011;10715;48.546;9.896;2023-04-06T03:40:57;6.33;;;5.73;;
21114;SDS011;10715;48.546;9.896;2023-04-06T03:43:23;13.50;;;6.90;;
21114;SDS011;10715;48.546;9.896;2023-04-06T03:45:49;9.30;;;7.70;;
21114;SDS011;10715;48.546;9.896;2023-04-06T03:48:15;6.20;;;5.17;;
21114;SDS011;10715;48.546;9.896;2023-04-06T03:50:40;8.17;;;6.37;;
21114;SDS011;10715;48.546;9.896;2023-04-06T03:53:06;9.73;;;5.57;;
21114;SDS011;10715;48.546;9.896;2023-04-06T03:55:32;8.07;;;6.87;;
21114;SDS011;10715;48.546;9.896;2023-04-06T03:57:57;10.07;;;6.30;;
21114;SDS011;10715;48.546;9.896;2023-04-06T04:00:24;7.70;;;6.70;;
21114;SDS011;10715;48.546;9.896;2023-04-06T04:02:50;9.50;;;6.90;;
21114;SDS011;10715;48.546;9.896;2023-04-06T04:05:16;8.23;;;6.57;;
21114;SDS011;10715;48.546;9.896;2023-04-06T04:07:41;10.40;;;6.20;;
21114;SDS011;10715;48.546;9.896;2023-04-06T04:10:07;7.47;;;5.93;;
21114;SDS011;10715;48.546;9.896;2023-04-06T04:12:33;8.57;;;5.43;;
21114;SDS011;10715;48.546;9.896;2023-04-06T04:14:59;11.70;;;6.70;;
21114;SDS011;10715;48.546;9.896;2023-04-06T04:17:25;10.13;;;7.33;;
21114;SDS011;10715;48.546;9.896;2023-04-06T04:19:50;8.53;;;5.60;;
21114;SDS011;10715;48.546;9.896;2023-04-06T04:22:16;9.60;;;6.60;;
21114;SDS011;10715;48.546;9.896;2023-04-06T04:24:42;9.40;;;6.17;;
21114;SDS011;10715;48.546;9.896;2023-04-06T04:27:07;8.67;;;7.77;;
21114;SDS011;10715;48.546;9.896;2023-04-06T04:29:33;6.97;;;6.27;;
21114;SDS011;10715;48.546;9.896;2023-04-06T04:31:59;8.03;;;5.20;;
21114;SDS011;10715;48.546;9.896;2023-04-06T04:34:25;11.00;;;6.37;;
21114;SDS011;10715;48.546;9.896;2023-04-06T04:36:51;8.30;;;6.03;;
21114;SDS011;10715;48.546;9.896;2023-04-06T04:39:17;6.80;;;5.30;;
21114;SDS011;10715;48.546;9.896;2023-04-06T04:41:43;8.60;;;5.13;;
21114;SDS011;10715;48.546;9.896;2023-04-06T04:44:09;12.20;;;6.23;;
21114;SDS011;10715;48.546;9.896;2023-04-06T04:46:35;10.77;;;6.87;;
21114;SDS011;10715;48.546;9.896;2023-04-06T04:49:00;6.27;;;5.67;;
21114;SDS011;10715;48.546;9.896;2023-04-06T04:51:26;9.17;;;7.67;;
21114;SDS011;10715;48.546;9.896;2023-04-06T04:53:52;9.40;;;7.60;;
21114;SDS011;10715;48.546;9.896;2023-04-06T04:56:17;9.00;;;6.77;;
21114;SDS011;10715;48.546;9.896;2023-04-06T04:58:43;8.93;;;6.67;;
21114;SDS011;10715;48.546;9.896;2023-04-06T05:01:09;8.30;;;6.17;;
21114;SDS011;10715;48.546;9.896;2023-04-06T05:03:35;10.33;;;6.60;;
21114;SDS011;10715;48.546;9.896;2023-04-06T05:06:03;9.17;;;7.63;;
21114;SDS011;10715;48.546;9.896;2023-04-06T05:08:30;8.00;;;6.00;;
21114;SDS011;10715;48.546;9.896;2023-04-06T05:10:55;11.57;;;7.10;;
21114;SDS011;10715;48.546;9.896;2023-04-06T05:13:21;15.97;;;8.03;;
21114;SDS011;10715;48.546;9.896;2023-04-06T05:15:47;8.60;;;7.40;;
21114;SDS011;10715;48.546;9.896;2023-04-06T05:18:13;9.60;;;7.00;;
21114;SDS011;10715;48.546;9.896;2023-04-06T05:20:39;8.83;;;6.87;;
21114;SDS011;10715;48.546;9.896;2023-04-06T05:23:05;21.23;;;7.53;;
21114;SDS011;10715;48.546;9.896;2023-04-06T05:25:31;11.03;;;7.50;;
21114;SDS011;10715;48.546;9.896;2023-04-06T05:27:58;13.10;;;7.83;;
21114;SDS011;10715;48.546;9.896;2023-04-06T05:30:23;8.67;;;7.20;;
21114;SDS011;10715;48.546;9.896;2023-04-06T05:32:50;9.20;;;6.27;;
21114;SDS011;10715;48.546;9.896;2023-04-06T05:35:15;16.40;;;7.50;;
21114;SDS011;10715;48.546;9.896;2023-04-06T05:37:42;13.23;;;7.60;;
21114;SDS011;10715;48.546;9.896;2023-04-06T05:40:08;14.00;;;8.97;;
21114;SDS011;10715;48.546;9.896;2023-04-06T05:42:40;8.53;;;6.73;;
21114;SDS011;10715;48.546;9.896;2023-04-06T05:45:10;7.77;;;6.97;;
21114;SDS011;10715;48.546;9.896;2023-04-06T05:47:41;13.10;;;8.40;;
21114;SDS011;10715;48.546;9.896;2023-04-06T05:50:08;11.93;;;8.37;;
21114;SDS011;10715;48.546;9.896;2023-04-06T05:52:34;19.77;;;7.53;;
21114;SDS011;10715;48.546;9.896;2023-04-06T05:55:00;8.53;;;7.57;;
21114;SDS011;10715;48.546;9.896;2023-04-06T05:57:26;8.53;;;7.40;;
21114;SDS011;10715;48.546;9.896;2023-04-06T05:59:51;11.43;;;7.60;;
21114;SDS011;10715;48.546;9.896;2023-04-06T06:02:17;11.73;;;8.07;;
21114;SDS011;10715;48.546;9.896;2023-04-06T06:04:43;19.13;;;11.40;;
21114;SDS011;10715;48.546;9.896;2023-04-06T06:07:08;11.83;;;8.23;;
21114;SDS011;10715;48.546;9.896;2023-04-06T06:09:34;12.80;;;9.50;;
21114;SDS011;10715;48.546;9.896;2023-04-06T06:12:00;12.73;;;9.60;;
21114;SDS011;10715;48.546;9.896;2023-04-06T06:14:26;11.10;;;8.13;;
21114;SDS011;10715;48.546;9.896;2023-04-06T06:16:53;10.90;;;7.10;;
21114;SDS011;10715;48.546;9.896;2023-04-06T06:19:19;17.30;;;9.53;;
21114;SDS011;10715;48.546;9.896;2023-04-06T06:21:45;8.80;;;7.67;;
21114;SDS011;10715;48.546;9.896;2023-04-06T06:24:11;13.03;;;8.93;;
21114;SDS011;10715;48.546;9.896;2023-04-06T06:26:37;13.80;;;8.10;;
21114;SDS011;10715;48.546;9.896;2023-04-06T06:29:04;13.10;;;9.30;;
21114;SDS011;10715;48.546;9.896;2023-04-06T06:31:31;14.70;;;9.60;;
21114;SDS011;10715;48.546;9.896;2023-04-06T06:33:57;12.67;;;8.90;;
21114;SDS011;10715;48.546;9.896;2023-04-06T06:36:22;34.80;;;18.17;;
21114;SDS011;10715;48.546;9.896;2023-04-06T06:38:48;37.33;;;19.17;;
21114;SDS011;10715;48.546;9.896;2023-04-06T06:41:14;45.53;;;22.80;;
21114;SDS011;10715;48.546;9.896;2023-04-06T06:43:40;114.83;;;50.27;;
21114;SDS011;10715;48.546;9.896;2023-04-06T06:46:06;177.17;;;70.27;;
21114;SDS011;10715;48.546;9.896;2023-04-06T06:48:32;71.77;;;35.70;;
21114;SDS011;10715;48.546;9.896;2023-04-06T06:50:58;40.97;;;20.33;;
21114;SDS011;10715;48.546;9.896;2023-04-06T06:53:24;34.63;;;12.77;;
21114;SDS011;10715;48.546;9.896;2023-04-06T06:55:50;25.63;;;14.40;;
21114;SDS011;10715;48.546;9.896;2023-04-06T06:58:17;15.53;;;13.03;;
21114;SDS011;10715;48.546;9.896;2023-04-06T07:00:44;21.83;;;12.70;;
21114;SDS011;10715;48.546;9.896;2023-04-06T07:03:10;21.57;;;13.00;;
21114;SDS011;10715;48.546;9.896;2023-04-06T07:05:36;21.67;;;13.47;;
21114;SDS011;10715;48.546;9.896;2023-04-06T07:08:02;44.87;;;12.83;;
21114;SDS011;10715;48.546;9.896;2023-04-06T07:10:28;15.17;;;10.73;;
21114;SDS011;10715;48.546;9.896;2023-04-06T07:12:54;24.90;;;13.80;;
21114;SDS011;10715;48.546;9.896;2023-04-06T07:15:19;26.00;;;11.97;;
21114;SDS011;10715;48.546;9.896;2023-04-06T07:17:45;18.57;;;12.07;;
21114;SDS011;10715;48.546;9.896;2023-04-06T07:20:11;20.77;;;14.37;;
21114;SDS011;10715;48.546;9.896;2023-04-06T07:22:38;23.83;;;15.33;;
21114;SDS011;10715;48.546;9.896;2023-04-06T07:25:04;22.53;;;14.50;;
21114;SDS011;10715;48.546;9.896;2023-04-06T07:27:30;24.37;;;14.67;;
21114;SDS011;10715;48.546;9.896;2023-04-06T07:29:56;21.83;;;14.27;;
21114;SDS011;10715;48.546;9.896;2023-04-06T07:32:22;18.30;;;12.43;;
21114;SDS011;10715;48.546;9.896;2023-04-06T07:34:47;27.90;;;14.20;;
21114;SDS011;10715;48.546;9.896;2023-04-06T07:37:13;29.03;;;13.87;;
21114;SDS011;10715;48.546;9.896;2023-04-06T07:39:39;28.87;;;12.20;;
21114;SDS011;10715;48.546;9.896;2023-04-06T07:42:05;18.80;;;12.80;;
21114;SDS011;10715;48.546;9.896;2023-04-06T07:44:31;18.33;;;12.10;;
21114;SDS011;10715;48.546;9.896;2023-04-06T07:46:57;18.60;;;10.83;;
21114;SDS011;10715;48.546;9.896;2023-04-06T07:49:22;20.40;;;13.07;;
21114;SDS011;10715;48.546;9.896;2023-04-06T07:51:52;18.03;;;11.37;;
21114;SDS011;10715;48.546;9.896;2023-04-06T07:54:17;18.20;;;12.33;;
21114;SDS011;10715;48.546;9.896;2023-04-06T07:56:43;22.13;;;13.80;;
21114;SDS011;10715;48.546;9.896;2023-04-06T07:59:09;15.43;;;11.70;;
21114;SDS011;10715;48.546;9.896;2023-04-06T08:01:36;25.70;;;13.60;;
21114;SDS011;10715;48.546;9.896;2023-04-06T08:04:02;23.30;;;12.77;;
21114;SDS011;10715;48.546;9.896;2023-04-06T08:06:27;20.03;;;12.50;;
21114;SDS011;10715;48.546;9.896;2023-04-06T08:08:53;17.80;;;12.50;;
21114;SDS011;10715;48.546;9.896;2023-04-06T08:11:19;25.10;;;11.63;;
21114;SDS011;10715;48.546;9.896;2023-04-06T08:13:45;19.13;;;12.43;;
21114;SDS011;10715;48.546;9.896;2023-04-06T08:16:11;19.87;;;12.70;;
21114;SDS011;10715;48.546;9.896;2023-04-06T08:18:37;16.10;;;10.00;;
21114;SDS011;10715;48.546;9.896;2023-04-06T08:21:03;19.20;;;11.20;;
21114;SDS011;10715;48.546;9.896;2023-04-06T08:23:28;20.83;;;12.47;;
21114;SDS011;10715;48.546;9.896;2023-04-06T08:25:54;18.57;;;12.40;;
21114;SDS011;10715;48.546;9.896;2023-04-06T08:28:21;26.87;;;14.23;;
21114;SDS011;10715;48.546;9.896;2023-04-06T08:30:46;25.67;;;13.63;;
21114;SDS011;10715;48.546;9.896;2023-04-06T08:33:12;23.50;;;12.47;;
21114;SDS011;10715;48.546;9.896;2023-04-06T08:35:38;22.20;;;12.00;;
21114;SDS011;10715;48.546;9.896;2023-04-06T08:38:04;35.20;;;16.80;;
21114;SDS011;10715;48.546;9.896;2023-04-06T08:40:35;35.30;;;17.00;;
21114;SDS011;10715;48.546;9.896;2023-04-06T08:43:06;15.03;;;9.90;;
21114;SDS011;10715;48.546;9.896;2023-04-06T08:45:35;16.00;;;11.30;;
21114;SDS011;10715;48.546;9.896;2023-04-06T08:48:00;18.40;;;11.70;;
21114;SDS011;10715;48.546;9.896;2023-04-06T08:50:29;15.07;;;10.60;;
21114;SDS011;10715;48.546;9.896;2023-04-06T08:52:55;13.00;;;10.30;;
21114;SDS011;10715;48.546;9.896;2023-04-06T08:55:22;19.17;;;11.03;;
21114;SDS011;10715;48.546;9.896;2023-04-06T08:57:48;10.53;;;7.60;;
21114;SDS011;10715;48.546;9.896;2023-04-06T09:00:15;10.40;;;6.13;;
21114;SDS011;10715;48.546;9.896;2023-04-06T09:02:42;11.40;;;9.10;;
21114;SDS011;10715;48.546;9.896;2023-04-06T09:05:10;11.37;;;7.77;;
21114;SDS011;10715;48.546;9.896;2023-04-06T09:07:36;8.50;;;6.80;;
21114;SDS011;10715;48.546;9.896;2023-04-06T09:10:03;10.53;;;7.07;;
21114;SDS011;10715;48.546;9.896;2023-04-06T09:12:30;11.87;;;8.50;;
21114;SDS011;10715;48.546;9.896;2023-04-06T09:14:57;9.93;;;6.53;;
21114;SDS011;10715;48.546;9.896;2023-04-06T09:17:25;14.10;;;8.33;;
21114;SDS011;10715;48.546;9.896;2023-04-06T09:19:53;15.37;;;8.93;;
21114;SDS011;10715;48.546;9.896;2023-04-06T09:22:19;9.97;;;6.50;;
21114;SDS011;10715;48.546;9.896;2023-04-06T09:24:46;11.17;;;8.53;;
21114;SDS011;10715;48.546;9.896;2023-04-06T09:27:15;8.63;;;7.50;;
21114;SDS011;10715;48.546;9.896;2023-04-06T09:29:41;11.50;;;7.63;;
21114;SDS011;10715;48.546;9.896;2023-04-06T09:32:08;9.00;;;6.47;;
21114;SDS011;10715;48.546;9.896;2023-04-06T09:34:41;12.33;;;8.00;;
21114;SDS011;10715;48.546;9.896;2023-04-06T09:39:40;13.30;;;7.43;;
21114;SDS011;10715;48.546;9.896;2023-04-06T09:42:06;9.80;;;7.00;;
21114;SDS011;10715;48.546;9.896;2023-04-06T09:44:31;7.10;;;5.73;;
21114;SDS011;10715;48.546;9.896;2023-04-06T09:46:57;11.93;;;7.40;;
21114;SDS011;10715;48.546;9.896;2023-04-06T09:49:23;9.93;;;6.00;;
21114;SDS011;10715;48.546;9.896;2023-04-06T09:52:01;12.00;;;7.37;;
21114;SDS011;10715;48.546;9.896;2023-04-06T09:54:29;6.90;;;6.27;;
21114;SDS011;10715;48.546;9.896;2023-04-06T09:56:57;11.90;;;6.97;;
21114;SDS011;10715;48.546;9.896;2023-04-06T10:02:28;11.33;;;8.03;;
21114;SDS011;10715;48.546;9.896;2023-04-06T10:05:05;8.53;;;6.60;;
21114;SDS011;10715;48.546;9.896;2023-04-06T10:07:56;13.90;;;8.80;;
21114;SDS011;10715;48.546;9.896;2023-04-06T10:10:25;8.83;;;7.33;;
21114;SDS011;10715;48.546;9.896;2023-04-06T10:12:51;6.43;;;5.83;;
21114;SDS011;10715;48.546;9.896;2023-04-06T10:15:18;16.03;;;8.70;;
21114;SDS011;10715;48.546;9.896;2023-04-06T10:17:44;10.07;;;8.20;;
21114;SDS011;10715;48.546;9.896;2023-04-06T10:22:55;12.00;;;6.57;;
21114;SDS011;10715;48.546;9.896;2023-04-06T10:25:32;20.97;;;9.00;;
21114;SDS011;10715;48.546;9.896;2023-04-06T10:27:59;13.60;;;8.37;;
21114;SDS011;10715;48.546;9.896;2023-04-06T10:30:37;9.93;;;8.30;;
21114;SDS011;10715;48.546;9.896;2023-04-06T10:33:15;13.47;;;8.10;;
21114;SDS011;10715;48.546;9.896;2023-04-06T10:35:43;13.40;;;7.63;;
21114;SDS011;10715;48.546;9.896;2023-04-06T10:38:09;11.73;;;8.07;;
21114;SDS011;10715;48.546;9.896;2023-04-06T10:40:38;12.70;;;9.20;;
21114;SDS011;10715;48.546;9.896;2023-04-06T10:45:37;11.47;;;8.30;;
21114;SDS011;10715;48.546;9.896;2023-04-06T10:48:14;13.17;;;10.07;;
21114;SDS011;10715;48.546;9.896;2023-04-06T10:50:41;15.33;;;7.80;;
21114;SDS011;10715;48.546;9.896;2023-04-06T10:53:08;10.60;;;9.20;;
21114;SDS011;10715;48.546;9.896;2023-04-06T10:55:34;10.83;;;8.60;;
21114;SDS011;10715;48.546;9.896;2023-04-06T10:58:07;13.53;;;8.00;;
21114;SDS011;10715;48.546;9.896;2023-04-06T11:00:33;10.80;;;7.10;;
21114;SDS011;10715;48.546;9.896;2023-04-06T11:03:00;11.87;;;8.97;;
21114;SDS011;10715;48.546;9.896;2023-04-06T11:05:27;8.97;;;7.07;;
21114;SDS011;10715;48.546;9.896;2023-04-06T11:07:53;21.53;;;8.37;;
21114;SDS011;10715;48.546;9.896;2023-04-06T11:10:22;7.83;;;7.03;;
21114;SDS011;10715;48.546;9.896;2023-04-06T11:12:54;14.43;;;7.87;;
21114;SDS011;10715;48.546;9.896;2023-04-06T11:15:20;13.40;;;9.47;;
21114;SDS011;10715;48.546;9.896;2023-04-06T11:17:46;7.77;;;7.00;;
21114;SDS011;10715;48.546;9.896;2023-04-06T11:20:11;9.27;;;7.07;;
21114;SDS011;10715;48.546;9.896;2023-04-06T11:22:51;9.20;;;6.57;;
21114;SDS011;10715;48.546;9.896;2023-04-06T11:25:17;12.17;;;8.80;;
21114;SDS011;10715;48.546;9.896;2023-04-06T11:27:43;21.03;;;13.53;;
21114;SDS011;10715;48.546;9.896;2023-04-06T11:30:11;19.83;;;11.07;;
21114;SDS011;10715;48.546;9.896;2023-04-06T11:32:41;13.13;;;9.67;;
21114;SDS011;10715;48.546;9.896;2023-04-06T11:35:20;16.40;;;7.50;;
21114;SDS011;10715;48.546;9.896;2023-04-06T11:37:48;11.57;;;7.73;;
21114;SDS011;10715;48.546;9.896;2023-04-06T11:40:20;14.07;;;7.60;;
21114;SDS011;10715;48.546;9.896;2023-04-06T11:42:53;9.10;;;7.03;;
21114;SDS011;10715;48.546;9.896;2023-04-06T11:45:20;9.73;;;7.90;;
21114;SDS011;10715;48.546;9.896;2023-04-06T11:47:55;12.13;;;7.10;;
21114;SDS011;10715;48.546;9.896;2023-04-06T11:50:22;13.57;;;8.70;;
21114;SDS011;10715;48.546;9.896;2023-04-06T11:52:48;15.90;;;8.47;;
21114;SDS011;10715;48.546;9.896;2023-04-06T11:55:26;8.60;;;6.60;;
21114;SDS011;10715;48.546;9.896;2023-04-06T11:57:52;10.13;;;6.80;;
21114;SDS011;10715;48.546;9.896;2023-04-06T12:00:18;9.53;;;7.20;;
21114;SDS011;10715;48.546;9.896;2023-04-06T12:02:46;21.40;;;7.93;;
21114;SDS011;10715;48.546;9.896;2023-04-06T12:05:12;6.83;;;6.03;;
21114;SDS011;10715;48.546;9.896;2023-04-06T12:07:38;9.47;;;6.20;;
21114;SDS011;10715;48.546;9.896;2023-04-06T12:10:04;9.83;;;5.70;;
21114;SDS011;10715;48.546;9.896;2023-04-06T12:12:30;9.10;;;7.07;;
21114;SDS011;10715;48.546;9.896;2023-04-06T12:14:56;7.70;;;6.90;;
21114;SDS011;10715;48.546;9.896;2023-04-06T12:17:22;15.53;;;8.90;;
21114;SDS011;10715;48.546;9.896;2023-04-06T12:19:48;8.90;;;6.03;;
21114;SDS011;10715;48.546;9.896;2023-04-06T12:22:14;7.00;;;6.30;;
21114;SDS011;10715;48.546;9.896;2023-04-06T12:24:40;5.73;;;5.23;;
21114;SDS011;10715;48.546;9.896;2023-04-06T12:27:06;9.13;;;7.03;;
21114;SDS011;10715;48.546;9.896;2023-04-06T12:29:32;6.90;;;6.30;;
21114;SDS011;10715;48.546;9.896;2023-04-06T12:31:58;8.50;;;6.80;;
21114;SDS011;10715;48.546;9.896;2023-04-06T12:34:26;7.97;;;7.17;;
21114;SDS011;10715;48.546;9.896;2023-04-06T12:36:52;10.20;;;7.97;;
21114;SDS011;10715;48.546;9.896;2023-04-06T12:39:18;10.17;;;5.83;;
21114;SDS011;10715;48.546;9.896;2023-04-06T12:41:45;12.73;;;6.80;;
21114;SDS011;10715;48.546;9.896;2023-04-06T12:44:11;7.00;;;6.40;;
21114;SDS011;10715;48.546;9.896;2023-04-06T12:46:36;12.60;;;7.70;;
21114;SDS011;10715;48.546;9.896;2023-04-06T12:49:02;10.60;;;7.40;;
21114;SDS011;10715;48.546;9.896;2023-04-06T12:51:29;12.50;;;8.10;;
21114;SDS011;10715;48.546;9.896;2023-04-06T12:53:56;9.47;;;6.80;;
21114;SDS011;10715;48.546;9.896;2023-04-06T12:56:22;10.67;;;8.00;;
21114;SDS011;10715;48.546;9.896;2023-04-06T12:58:50;11.50;;;7.13;;
21114;SDS011;10715;48.546;9.896;2023-04-06T13:01:16;9.97;;;6.90;;
21114;SDS011;10715;48.546;9.896;2023-04-06T13:03:42;6.87;;;6.00;;
21114;SDS011;10715;48.546;9.896;2023-04-06T13:06:08;9.43;;;6.50;;
21114;SDS011;10715;48.546;9.896;2023-04-06T13:08:35;10.47;;;7.67;;
21114;SDS011;10715;48.546;9.896;2023-04-06T13:11:02;9.50;;;6.33;;
21114;SDS011;10715;48.546;9.896;2023-04-06T13:13:29;10.47;;;7.17;;
21114;SDS011;10715;48.546;9.896;2023-04-06T13:16:00;10.40;;;7.00;;
21114;SDS011;10715;48.546;9.896;2023-04-06T13:18:27;9.63;;;6.33;;
21114;SDS011;10715;48.546;9.896;2023-04-06T13:20:55;10.83;;;6.97;;
21114;SDS011;10715;48.546;9.896;2023-04-06T13:23:21;7.13;;;6.07;;
21114;SDS011;10715;48.546;9.896;2023-04-06T13:26:00;7.70;;;6.97;;
21114;SDS011;10715;48.546;9.896;2023-04-06T13:28:28;9.77;;;6.77;;
21114;SDS011;10715;48.546;9.896;2023-04-06T13:30:55;12.20;;;5.90;;
21114;SDS011;10715;48.546;9.896;2023-04-06T13:33:21;7.67;;;6.80;;
21114;SDS011;10715;48.546;9.896;2023-04-06T13:35:47;9.33;;;7.40;;
21114;SDS011;10715;48.546;9.896;2023-04-06T13:38:13;7.70;;;5.90;;
21114;SDS011;10715;48.546;9.896;2023-04-06T13:40:39;10.23;;;6.80;;
21114;SDS011;10715;48.546;9.896;2023-04-06T13:43:06;6.63;;;6.03;;
21114;SDS011;10715;48.546;9.896;2023-04-06T13:45:32;7.17;;;5.80;;
21114;SDS011;10715;48.546;9.896;2023-04-06T13:47:58;8.40;;;6.30;;
21114;SDS011;10715;48.546;9.896;2023-04-06T13:50:27;7.50;;;6.80;;
21114;SDS011;10715;48.546;9.896;2023-04-06T13:52:53;10.60;;;6.90;;
21114;SDS011;10715;48.546;9.896;2023-04-06T13:55:19;7.00;;;6.40;;
21114;SDS011;10715;48.546;9.896;2023-04-06T13:57:46;6.87;;;6.17;;
21114;SDS011;10715;48.546;9.896;2023-04-06T14:00:13;7.73;;;6.70;;
21114;SDS011;10715;48.546;9.896;2023-04-06T14:02:40;8.60;;;7.80;;
21114;SDS011;10715;48.546;9.896;2023-04-06T14:05:05;7.37;;;6.70;;
21114;SDS011;10715;48.546;9.896;2023-04-06T14:07:31;8.33;;;6.00;;
21114;SDS011;10715;48.546;9.896;2023-04-06T14:09:57;11.00;;;8.27;;
21114;SDS011;10715;48.546;9.896;2023-04-06T14:12:23;10.57;;;6.37;;
21114;SDS011;10715;48.546;9.896;2023-04-06T14:14:49;6.60;;;6.00;;
21114;SDS011;10715;48.546;9.896;2023-04-06T14:17:15;5.63;;;5.07;;
21114;SDS011;10715;48.546;9.896;2023-04-06T14:19:40;5.57;;;5.17;;
21114;SDS011;10715;48.546;9.896;2023-04-06T14:22:06;9.50;;;6.47;;
21114;SDS011;10715;48.546;9.896;2023-04-06T14:24:33;12.23;;;7.33;;
21114;SDS011;10715;48.546;9.896;2023-04-06T14:27:00;6.20;;;5.60;;
21114;SDS011;10715;48.546;9.896;2023-04-06T14:29:27;6.50;;;5.90;;
21114;SDS011;10715;48.546;9.896;2023-04-06T14:31:52;4.50;;;4.20;;
21114;SDS011;10715;48.546;9.896;2023-04-06T14:34:24;4.73;;;4.23;;
21114;SDS011;10715;48.546;9.896;2023-04-06T14:36:51;6.20;;;5.57;;
21114;SDS011;10715;48.546;9.896;2023-04-06T14:39:17;7.30;;;5.33;;
21114;SDS011;10715;48.546;9.896;2023-04-06T14:41:43;6.30;;;5.17;;
21114;SDS011;10715;48.546;9.896;2023-04-06T14:44:08;11.90;;;6.43;;
21114;SDS011;10715;48.546;9.896;2023-04-06T14:46:37;6.57;;;5.53;;